Aviation Digital Data Service (ADDS)

Output produced by METARs form (0411 UTC 28 July 2014)
found at http://aviationweather.gov/adds/metars/
 
KARA 280353Z AUTO 22004KT 10SM CLR 27/24 A3007 RMK AO2 SLP183 T02720244